createdAt,value
2022-09-23T00:01:57.143Z,101733.25
2022-09-23T00:04:26.652Z,101723.56
2022-09-23T00:06:56.071Z,101726.00
2022-09-23T00:09:25.370Z,101726.81
2022-09-23T00:11:55.529Z,101726.00
2022-09-23T00:14:24.990Z,101738.50
2022-09-23T00:16:54.363Z,101731.28
2022-09-23T00:19:23.816Z,101734.09
2022-09-23T00:21:53.220Z,101728.44
2022-09-23T00:24:22.547Z,101715.59
2022-09-23T00:26:51.979Z,101724.44
2022-09-23T00:29:21.226Z,101726.06
2022-09-23T00:31:50.540Z,101718.84
2022-09-23T00:34:19.809Z,101721.28
2022-09-23T00:36:49.053Z,101727.31
2022-09-23T00:39:18.365Z,101710.00
2022-09-23T00:41:47.626Z,101730.13
2022-09-23T00:44:44.589Z,101733.34
2022-09-23T00:47:23.200Z,101728.50
2022-09-23T00:50:02.936Z,101719.25
2022-09-23T00:52:34.244Z,101717.22
2022-09-23T00:55:08.337Z,101714.00
2022-09-23T00:57:39.887Z,101704.75
2022-09-23T01:00:10.735Z,101702.34
2022-09-23T01:02:42.649Z,101694.69
2022-09-23T01:05:12.294Z,101702.75
2022-09-23T01:07:42.014Z,101710.78
2022-09-23T01:10:13.556Z,101708.34
2022-09-23T01:13:25.764Z,101704.31
2022-09-23T01:16:37.535Z,101698.25
2022-09-23T01:19:47.270Z,101704.28
2022-09-23T01:22:34.458Z,101693.81
2022-09-23T01:25:31.606Z,101691.44
2022-09-23T01:28:38.067Z,101700.66
2022-09-23T01:31:33.763Z,101690.63
2022-09-23T01:34:09.682Z,101698.25
2022-09-23T01:36:45.662Z,101686.59
2022-09-23T01:39:41.827Z,101690.66
2022-09-23T01:42:33.947Z,101689.03
2022-09-23T01:45:12.728Z,101684.19
2022-09-23T01:47:50.800Z,101680.56
2022-09-23T01:50:41.148Z,101683.38
2022-09-23T01:53:24.135Z,101687.03
2022-09-23T01:56:00.339Z,101679.00
2022-09-23T01:58:54.495Z,101689.06
2022-09-23T02:01:37.642Z,101685.84
2022-09-23T02:04:12.868Z,101679.44
2022-09-23T02:06:52.206Z,101678.22
2022-09-23T02:09:28.444Z,101682.25
2022-09-23T02:12:05.782Z,101669.78
2022-09-23T02:14:42.724Z,101671.00
2022-09-23T02:17:15.827Z,101673.00
2022-09-23T02:19:50.234Z,101669.78
2022-09-23T02:22:28.212Z,101663.34
2022-09-23T02:25:00.209Z,101670.19
2022-09-23T02:27:43.846Z,101672.19
2022-09-23T02:30:17.988Z,101664.94
2022-09-23T02:32:54.548Z,101661.72
2022-09-23T02:35:37.232Z,101660.47
2022-09-23T02:38:26.025Z,101662.50
2022-09-23T02:41:07.124Z,101661.28
2022-09-23T02:44:02.607Z,101660.09
2022-09-23T02:46:32.615Z,101661.28
2022-09-23T02:49:04.379Z,101634.38
2022-09-23T02:51:37.928Z,101658.03
2022-09-23T02:54:14.930Z,101651.22
2022-09-23T02:56:44.910Z,101652.78
2022-09-23T02:59:19.366Z,101645.53
2022-09-23T03:02:07.964Z,101644.75
2022-09-23T03:04:59.583Z,101644.75
2022-09-23T03:07:38.303Z,101637.50
2022-09-23T03:10:25.380Z,101642.31
2022-09-23T03:13:07.256Z,101630.22
2022-09-23T03:16:02.658Z,101625.81
2022-09-23T03:18:50.287Z,101622.22
2022-09-23T03:21:26.708Z,101619.00
2022-09-23T03:23:58.254Z,101619.84
2022-09-23T03:26:33.813Z,101622.25
2022-09-23T03:29:07.419Z,101618.22
2022-09-23T03:31:37.531Z,101614.25
2022-09-23T03:34:13.209Z,101611.06
2022-09-23T03:36:52.062Z,101607.88
2022-09-23T03:39:41.644Z,101611.09
2022-09-23T03:42:17.017Z,101608.31
2022-09-23T03:44:48.425Z,101609.50
2022-09-23T03:47:19.109Z,101608.72
2022-09-23T03:49:51.576Z,101605.50
2022-09-23T03:52:22.236Z,101599.09
2022-09-23T03:54:52.170Z,101593.06
2022-09-23T03:57:23.189Z,101593.44
2022-09-23T03:59:53.519Z,101587.81
2022-09-23T04:02:23.623Z,101592.66
2022-09-23T04:04:52.983Z,101584.63
2022-09-23T04:07:22.327Z,101588.63
2022-09-23T04:09:51.585Z,101591.06
2022-09-23T04:12:20.859Z,101591.06
2022-09-23T04:14:50.187Z,101591.09
2022-09-23T04:17:19.871Z,101587.06
2022-09-23T04:19:49.223Z,101590.31
2022-09-23T04:22:18.505Z,101591.94
2022-09-23T04:24:49.307Z,101587.09
2022-09-23T04:27:18.671Z,101595.50
2022-09-23T04:29:48.018Z,101597.56
2022-09-23T04:32:17.299Z,101590.69
2022-09-23T04:34:46.532Z,101593.91
2022-09-23T04:37:15.773Z,101591.53
2022-09-23T04:39:45.023Z,101595.13
2022-09-23T04:42:14.431Z,101586.31
2022-09-23T04:44:43.662Z,101591.13
2022-09-23T04:47:13.085Z,101575.84
2022-09-23T04:49:43.369Z,101581.50
2022-09-23T04:52:12.655Z,101568.66
2022-09-23T04:54:43.510Z,101571.88
2022-09-23T04:57:12.750Z,101578.28
2022-09-23T04:59:42.049Z,101580.72
2022-09-23T05:02:12.728Z,101583.94
2022-09-23T05:04:42.587Z,101583.94
2022-09-23T05:07:12.203Z,101587.16
2022-09-23T05:09:41.646Z,101583.94
2022-09-23T05:12:11.077Z,101582.34
2022-09-23T05:14:40.696Z,101580.75
2022-09-23T05:17:10.068Z,101584.75
2022-09-23T05:19:42.578Z,101575.09
2022-09-23T05:22:11.811Z,101568.69
2022-09-23T05:24:42.466Z,101581.56
2022-09-23T05:27:11.783Z,101585.97
2022-09-23T05:29:42.913Z,101579.16
2022-09-23T05:32:12.175Z,101573.94
2022-09-23T05:34:41.682Z,101577.53
2022-09-23T05:37:10.931Z,101580.75
2022-09-23T05:39:40.419Z,101588.78
2022-09-23T05:42:09.990Z,101571.91
2022-09-23T05:44:42.404Z,101576.69
2022-09-23T05:47:11.641Z,101579.91
2022-09-23T05:49:58.518Z,101576.72
2022-09-23T05:52:28.730Z,101587.16
2022-09-23T05:54:58.074Z,101586.72
2022-09-23T05:57:27.422Z,101597.59
2022-09-23T05:59:56.776Z,101589.97
2022-09-23T06:02:26.059Z,101586.34
2022-09-23T06:04:55.374Z,101591.16
2022-09-23T06:07:24.894Z,101589.97
2022-09-23T06:09:55.784Z,101591.56
2022-09-23T06:12:25.156Z,101593.56
2022-09-23T06:14:54.457Z,101602.38
2022-09-23T06:17:23.707Z,101601.91
2022-09-23T06:19:52.922Z,101594.28
2022-09-23T06:22:22.238Z,101595.84
2022-09-23T06:24:51.530Z,101597.41
2022-09-23T06:27:20.803Z,101588.56
2022-09-23T06:29:52.499Z,101594.19
2022-09-23T06:32:23.125Z,101599.75
2022-09-23T06:34:52.415Z,101593.19
2022-09-23T06:37:21.728Z,101591.97
2022-09-23T06:39:51.201Z,101605.16
2022-09-23T06:42:20.452Z,101591.41
2022-09-23T06:44:49.708Z,101597.00
2022-09-23T06:47:18.972Z,101598.91
2022-09-23T06:49:48.609Z,101597.56
2022-09-23T06:52:18.036Z,101587.78
2022-09-23T06:54:47.364Z,101600.59
2022-09-23T06:57:17.449Z,101598.06
2022-09-23T06:59:46.781Z,101592.31
2022-09-23T07:02:16.233Z,101593.38
2022-09-23T07:04:45.527Z,101594.53
2022-09-23T07:07:16.414Z,101582.38
2022-09-23T07:09:45.658Z,101591.56
2022-09-23T07:12:15.368Z,101587.81
2022-09-23T07:14:46.043Z,101594.94
2022-09-23T07:17:15.415Z,101596.41
2022-09-23T07:19:44.799Z,101597.16
2022-09-23T07:22:14.240Z,101597.59
2022-09-23T07:24:44.011Z,101597.06
2022-09-23T07:27:14.364Z,101592.09
2022-09-23T07:29:48.446Z,101556.75
2022-09-23T07:32:18.461Z,101583.78
2022-09-23T07:34:48.279Z,101587.69
2022-09-23T07:37:18.754Z,101581.50
2022-09-23T07:39:48.296Z,101584.25
2022-09-23T07:42:17.814Z,101585.81
2022-09-23T07:44:47.839Z,101589.75
2022-09-23T07:47:17.747Z,101589.66
2022-09-23T07:49:47.098Z,101586.19
2022-09-23T07:52:17.056Z,101586.81
2022-09-23T07:54:49.713Z,101584.16
2022-09-23T07:57:19.020Z,101589.63
2022-09-23T07:59:48.339Z,101582.84
2022-09-23T08:02:17.751Z,101582.63
2022-09-23T08:04:47.124Z,101581.88
2022-09-23T08:07:16.616Z,101572.78
2022-09-23T08:09:46.948Z,101586.84
2022-09-23T08:12:19.358Z,101576.06
2022-09-23T08:14:48.569Z,101583.91
2022-09-23T08:17:17.845Z,101579.47
2022-09-23T08:19:47.148Z,101581.78
2022-09-23T08:22:16.538Z,101582.50
2022-09-23T08:24:45.836Z,101576.03
2022-09-23T08:27:15.345Z,101589.97
2022-09-23T08:29:44.623Z,101589.63
2022-09-23T08:32:14.285Z,101589.81
2022-09-23T08:34:44.052Z,101595.66
2022-09-23T08:37:14.101Z,101598.31
2022-09-23T08:39:43.526Z,101603.63
2022-09-23T08:42:34.406Z,101608.91
2022-09-23T08:45:07.531Z,101611.25
2022-09-23T08:47:47.525Z,101611.59
2022-09-23T08:50:31.971Z,101607.94
2022-09-23T08:53:04.593Z,101613.38
2022-09-23T08:55:43.026Z,101609.97
2022-09-23T08:58:46.611Z,101603.75
2022-09-23T09:01:46.005Z,101601.16
2022-09-23T09:04:44.403Z,101595.09
2022-09-23T09:10:12.559Z,101598.31
2022-09-23T09:12:46.841Z,101592.41
2022-09-23T09:15:25.169Z,101599.13
2022-09-23T09:18:33.535Z,101598.94
2022-09-23T09:21:16.107Z,101597.84
2022-09-23T09:23:56.076Z,101586.72
2022-09-23T09:26:45.690Z,101593.56
2022-09-23T09:29:36.232Z,101600.84
2022-09-23T09:32:21.851Z,101582.28
2022-09-23T09:35:00.856Z,101587.38
2022-09-23T09:37:38.336Z,101582.13
2022-09-23T09:40:08.979Z,101575.28
2022-09-23T09:42:43.747Z,101573.88
2022-09-23T09:45:57.720Z,101564.78
2022-09-23T09:48:56.359Z,101575.88
2022-09-23T09:51:27.991Z,101576.16
2022-09-23T09:54:17.824Z,101569.00
2022-09-23T09:59:42.062Z,101560.53
2022-09-23T10:02:32.361Z,101548.41
2022-09-23T10:05:28.436Z,101552.31
2022-09-23T10:07:58.092Z,101554.44
2022-09-23T10:10:32.778Z,101549.53
2022-09-23T10:13:18.320Z,101554.94
2022-09-23T10:15:48.175Z,101553.03
2022-09-23T10:18:31.871Z,101562.25
2022-09-23T10:21:10.859Z,101556.06
2022-09-23T10:23:54.361Z,101553.66
2022-09-23T10:26:33.857Z,101548.25
2022-09-23T10:29:21.637Z,101552.72
2022-09-23T10:31:52.843Z,101551.28
2022-09-23T10:34:29.380Z,101548.09
2022-09-23T10:37:06.316Z,101553.66
2022-09-23T10:39:48.473Z,101542.09
2022-09-23T10:42:48.513Z,101555.91
2022-09-23T10:45:41.195Z,101552.75
2022-09-23T10:48:43.557Z,101551.13
2022-09-23T10:51:42.285Z,101551.59
2022-09-23T10:54:26.714Z,101546.03
2022-09-23T10:57:23.253Z,101547.66
2022-09-23T11:00:07.458Z,101543.19
2022-09-23T11:02:52.606Z,101553.69
2022-09-23T11:05:38.270Z,101554.94
2022-09-23T11:08:36.572Z,101550.50
2022-09-23T11:11:13.072Z,101554.47
2022-09-23T11:13:54.735Z,101552.09
2022-09-23T11:16:52.745Z,101548.91
2022-09-23T11:19:38.139Z,101537.78
2022-09-23T11:22:26.145Z,101531.25
2022-09-23T11:25:33.769Z,101529.84
2022-09-23T11:28:20.080Z,101526.19
2022-09-23T11:31:24.243Z,101529.53
2022-09-23T11:33:59.244Z,101526.66
2022-09-23T11:36:44.720Z,101524.75
2022-09-23T11:39:25.319Z,101531.41
2022-09-23T11:41:59.341Z,101521.25
2022-09-23T11:44:49.113Z,101525.06
2022-09-23T11:47:28.162Z,101516.13
2022-09-23T11:50:14.185Z,101515.16
2022-09-23T11:52:48.352Z,101505.91
2022-09-23T11:55:26.382Z,101509.38
2022-09-23T11:58:25.696Z,101511.53
2022-09-23T12:01:02.613Z,101506.13
2022-09-23T12:03:43.879Z,101507.38
2022-09-23T12:06:21.053Z,101500.47
2022-09-23T12:08:57.644Z,101489.03
2022-09-23T12:11:33.613Z,101489.81
2022-09-23T12:14:27.356Z,101495.03
2022-09-23T12:17:27.927Z,101489.50
2022-09-23T12:20:17.143Z,101485.97
2022-09-23T12:22:56.025Z,101486.28
2022-09-23T12:25:43.354Z,101486.28
2022-09-23T12:28:37.683Z,101484.19
2022-09-23T12:31:13.720Z,101485.59
2022-09-23T12:33:44.147Z,101482.09
2022-09-23T12:36:14.862Z,101482.22
2022-09-23T12:38:53.246Z,101472.81
2022-09-23T12:41:29.300Z,101474.81
2022-09-23T12:44:03.346Z,101476.88
2022-09-23T12:46:32.658Z,101471.44
2022-09-23T12:49:04.418Z,101477.00
2022-09-23T12:51:39.392Z,101469.25
2022-09-23T12:54:08.763Z,101477.78
2022-09-23T12:56:42.503Z,101465.72
2022-09-23T12:59:29.354Z,101463.84
2022-09-23T13:01:59.729Z,101458.09
2022-09-23T13:04:58.657Z,101465.72
2022-09-23T13:07:37.108Z,101453.03
2022-09-23T13:10:19.285Z,101454.31
2022-09-23T13:12:50.018Z,101454.31
2022-09-23T13:15:29.200Z,101455.22
2022-09-23T13:18:26.525Z,101449.50
2022-09-23T13:20:57.059Z,101443.78
2022-09-23T13:23:33.836Z,101441.22
2022-09-23T13:26:12.712Z,101441.22
2022-09-23T13:28:47.376Z,101433.38
2022-09-23T13:31:19.240Z,101436.44
2022-09-23T13:33:51.796Z,101430.13
2022-09-23T13:36:22.488Z,101435.84
2022-09-23T13:38:51.764Z,101431.06
2022-09-23T13:41:28.536Z,101429.31
2022-09-23T13:44:00.585Z,101427.19
2022-09-23T13:46:36.313Z,101431.00
2022-09-23T13:49:05.781Z,101424.69
2022-09-23T13:51:39.111Z,101430.06
2022-09-23T13:54:08.506Z,101423.63
2022-09-23T13:56:38.020Z,101424.25
2022-09-23T13:59:29.311Z,101426.59
2022-09-23T14:02:07.048Z,101415.63
2022-09-23T14:04:36.620Z,101412.16
2022-09-23T14:07:07.060Z,101408.06
2022-09-23T14:09:37.959Z,101409.38
2022-09-23T14:12:12.518Z,101409.56
2022-09-23T14:14:44.277Z,101410.41
2022-09-23T14:17:19.692Z,101403.41
2022-09-23T14:19:49.915Z,101404.03
2022-09-23T14:22:31.091Z,101400.78
2022-09-23T14:25:01.234Z,101404.97
2022-09-23T14:27:33.625Z,101401.59
2022-09-23T14:30:05.165Z,101408.47
2022-09-23T14:32:34.986Z,101398.81
2022-09-23T14:35:04.568Z,101394.72
2022-09-23T14:37:55.841Z,101401.63
2022-09-23T14:40:30.275Z,101392.53
2022-09-23T14:42:59.584Z,101396.66
2022-09-23T14:45:33.003Z,101387.94
2022-09-23T14:48:12.711Z,101386.19
2022-09-23T14:50:51.383Z,101385.56
2022-09-23T14:53:22.426Z,101380.47
2022-09-23T14:55:57.422Z,101385.56
2022-09-23T14:58:31.270Z,101369.38
2022-09-23T15:01:05.128Z,101379.84
2022-09-23T15:03:34.487Z,101374.13
2022-09-23T15:06:09.256Z,101362.84
2022-09-23T15:08:38.703Z,101356.94
2022-09-23T15:11:08.576Z,101366.28
2022-09-23T15:13:45.196Z,101368.47
2022-09-23T15:16:18.033Z,101357.00
2022-09-23T15:18:48.766Z,101365.28
2022-09-23T15:21:23.260Z,101363.41
2022-09-23T15:23:58.627Z,101362.47
2022-09-23T15:26:49.329Z,101369.75
2022-09-23T15:29:18.609Z,101365.94
2022-09-23T15:31:50.627Z,101362.34
2022-09-23T15:34:21.141Z,101363.81
2022-09-23T15:36:50.947Z,101365.88
2022-09-23T15:39:20.331Z,101363.03
2022-09-23T15:41:49.952Z,101367.69
2022-09-23T15:44:28.628Z,101367.06
2022-09-23T15:47:01.190Z,101363.84
2022-09-23T15:49:39.041Z,101364.94
2022-09-23T15:52:10.335Z,101362.06
2022-09-23T15:54:39.908Z,101345.44
2022-09-23T15:57:09.289Z,101357.19
2022-09-23T15:59:38.564Z,101354.69
2022-09-23T16:02:16.404Z,101357.25
2022-09-23T16:04:47.276Z,101364.31
2022-09-23T16:07:17.133Z,101359.88
2022-09-23T16:09:46.398Z,101365.91
2022-09-23T16:12:16.126Z,101354.81
2022-09-23T16:14:45.418Z,101364.84
2022-09-23T16:17:16.135Z,101370.69
2022-09-23T16:19:45.413Z,101368.50
2022-09-23T16:22:18.235Z,101362.13
2022-09-23T16:24:47.605Z,101360.91
2022-09-23T16:27:20.755Z,101365.31
2022-09-23T16:29:50.025Z,101357.03
2022-09-23T16:32:22.257Z,101361.19
2022-09-23T16:34:51.678Z,101362.94
2022-09-23T16:37:21.373Z,101358.00
2022-09-23T16:39:55.445Z,101355.47
2022-09-23T16:42:24.737Z,101348.47
2022-09-23T16:44:54.001Z,101345.16
2022-09-23T16:47:23.264Z,101345.31
2022-09-23T16:49:52.613Z,101350.84
2022-09-23T16:52:21.978Z,101347.84
2022-09-23T16:54:51.254Z,101338.34
2022-09-23T16:57:20.555Z,101347.22
2022-09-23T17:00:02.308Z,101349.28
2022-09-23T17:02:44.109Z,101347.53
2022-09-23T17:05:16.395Z,101347.66
2022-09-23T17:07:45.814Z,101349.44
2022-09-23T17:10:15.236Z,101352.13
2022-09-23T17:12:44.545Z,101349.09
2022-09-23T17:15:16.774Z,101343.69
2022-09-23T17:17:46.035Z,101352.88
2022-09-23T17:20:15.767Z,101348.59
2022-09-23T17:22:45.152Z,101346.50
2022-09-23T17:25:14.674Z,101344.69
2022-09-23T17:27:46.930Z,101340.75
2022-09-23T17:30:16.371Z,101338.53
2022-09-23T17:32:45.952Z,101338.78
2022-09-23T17:35:15.238Z,101348.28
2022-09-23T17:37:44.540Z,101346.41
2022-09-23T17:40:16.842Z,101340.03
2022-09-23T17:42:46.142Z,101342.22
2022-09-23T17:45:15.954Z,101343.84
2022-09-23T17:47:51.294Z,101346.03
2022-09-23T17:50:20.844Z,101343.78
2022-09-23T17:52:50.216Z,101344.72
2022-09-23T17:55:19.996Z,101340.91
2022-09-23T17:57:53.371Z,101342.47
2022-09-23T18:00:22.822Z,101343.75
2022-09-23T18:02:55.255Z,101345.00
2022-09-23T18:05:25.039Z,101339.91
2022-09-23T18:07:54.286Z,101333.88
2022-09-23T18:10:23.623Z,101328.84
2022-09-23T18:12:52.878Z,101340.56
2022-09-23T18:15:22.171Z,101325.31
2022-09-23T18:17:51.445Z,101332.63
2022-09-23T18:20:20.716Z,101329.91
2022-09-23T18:22:49.968Z,101326.88
2022-09-23T18:25:38.211Z,101334.44
2022-09-23T18:28:08.412Z,101336.16
2022-09-23T18:30:37.688Z,101334.72
2022-09-23T18:33:06.995Z,101335.63
2022-09-23T18:35:36.315Z,101343.56
2022-09-23T18:38:05.613Z,101332.75
2022-09-23T18:40:35.026Z,101340.03
2022-09-23T18:43:05.110Z,101338.28
2022-09-23T18:45:34.437Z,101342.28
2022-09-23T18:48:16.444Z,101340.84
2022-09-23T18:50:47.447Z,101335.91
2022-09-23T18:53:16.751Z,101340.72
2022-09-23T18:55:46.111Z,101341.16
2022-09-23T18:58:15.423Z,101334.34
2022-09-23T19:00:44.772Z,101339.56
2022-09-23T19:03:14.178Z,101347.97
2022-09-23T19:05:43.459Z,101358.13
2022-09-23T19:08:12.933Z,101344.00
2022-09-23T19:10:42.225Z,101344.81
2022-09-23T19:13:13.871Z,101349.84
2022-09-23T19:15:43.208Z,101343.03
2022-09-23T19:18:12.751Z,101348.41
2022-09-23T19:20:51.846Z,101338.69
2022-09-23T19:23:22.699Z,101342.69
2022-09-23T19:25:52.232Z,101347.34
2022-09-23T19:28:21.571Z,101342.06
2022-09-23T19:30:50.808Z,101346.63
2022-09-23T19:33:20.091Z,101344.13
2022-09-23T19:35:53.976Z,101343.34
2022-09-23T19:38:23.499Z,101346.63
2022-09-23T19:40:53.887Z,101339.50
2022-09-23T19:43:23.744Z,101338.69
2022-09-23T19:45:57.050Z,101335.91
2022-09-23T19:48:26.328Z,101331.28
2022-09-23T19:50:55.569Z,101331.41
2022-09-23T19:53:28.018Z,101311.66
2022-09-23T19:56:00.533Z,101331.75
2022-09-23T19:58:29.783Z,101333.25
2022-09-23T20:00:59.139Z,101335.06
2022-09-23T20:03:28.574Z,101337.91
2022-09-23T20:05:59.637Z,101332.09
2022-09-23T20:08:29.745Z,101340.25
2022-09-23T20:10:59.103Z,101329.00
2022-09-23T20:13:28.816Z,101333.59
2022-09-23T20:15:58.165Z,101324.13
2022-09-23T20:18:27.397Z,101324.31
2022-09-23T20:20:57.429Z,101318.75
2022-09-23T20:23:26.699Z,101315.31
2022-09-23T20:26:12.392Z,101322.72
2022-09-23T20:28:42.347Z,101322.03
2022-09-23T20:31:11.883Z,101319.06
2022-09-23T20:33:43.003Z,101320.44
2022-09-23T20:36:17.114Z,101323.53
2022-09-23T20:38:46.430Z,101322.63
2022-09-23T20:41:17.270Z,101314.09
2022-09-23T20:43:48.219Z,101320.88
2022-09-23T20:46:17.830Z,101321.94
2022-09-23T20:48:49.214Z,101320.34
2022-09-23T20:51:18.568Z,101324.13
2022-09-23T20:53:51.823Z,101309.88
2022-09-23T20:56:22.311Z,101316.84
2022-09-23T20:58:54.109Z,101317.41
2022-09-23T21:01:24.184Z,101313.31
2022-09-23T21:03:55.905Z,101316.28
2022-09-23T21:06:26.975Z,101308.56
2022-09-23T21:08:57.004Z,101306.50
2022-09-23T21:11:26.430Z,101303.19
2022-09-23T21:13:55.723Z,101301.28
2022-09-23T21:16:25.838Z,101296.16
2022-09-23T21:18:55.451Z,101304.91
2022-09-23T21:21:24.775Z,101305.50
2022-09-23T21:23:54.155Z,101304.03
2022-09-23T21:26:26.107Z,101304.03
2022-09-23T21:29:01.161Z,101305.81
2022-09-23T21:31:34.781Z,101300.94
2022-09-23T21:34:08.887Z,101306.16
2022-09-23T21:36:41.453Z,101297.75
2022-09-23T21:39:13.168Z,101302.66
2022-09-23T21:41:42.909Z,101304.91
2022-09-23T21:44:12.200Z,101300.81
2022-09-23T21:46:41.679Z,101302.66
2022-09-23T21:49:11.020Z,101305.81
2022-09-23T21:51:42.870Z,101308.56
2022-09-23T21:54:16.947Z,101314.25
2022-09-23T21:56:47.206Z,101302.88
2022-09-23T21:59:16.600Z,101303.81
2022-09-23T22:01:48.363Z,101301.88
2022-09-23T22:04:21.859Z,101301.66
2022-09-23T22:06:51.488Z,101301.78
2022-09-23T22:09:23.448Z,101290.53
2022-09-23T22:12:09.647Z,101298.84
2022-09-23T22:14:39.177Z,101301.34
2022-09-23T22:17:12.277Z,101299.06
2022-09-23T22:19:46.693Z,101299.28
2022-09-23T22:22:17.966Z,101302.13
2022-09-23T22:24:49.265Z,101300.53
2022-09-23T22:27:21.070Z,101294.84
2022-09-23T22:30:03.309Z,101297.69
2022-09-23T22:32:46.271Z,101303.38
2022-09-23T22:35:20.288Z,101294.41
2022-09-23T22:37:49.658Z,101299.28
2022-09-23T22:40:19.141Z,101294.50
2022-09-23T22:42:48.777Z,101299.50
2022-09-23T22:45:18.233Z,101293.28
2022-09-23T22:47:48.095Z,101291.78
2022-09-23T22:50:17.992Z,101285.41
2022-09-23T22:52:47.581Z,101282.47
2022-09-23T22:55:16.859Z,101288.84
2022-09-23T22:57:46.148Z,101284.06
2022-09-23T23:00:15.921Z,101279.16
2022-09-23T23:02:45.391Z,101285.06
2022-09-23T23:05:14.663Z,101287.56
2022-09-23T23:07:44.719Z,101282.69
2022-09-23T23:10:17.211Z,101280.66
2022-09-23T23:12:46.981Z,101275.09
2022-09-23T23:15:16.362Z,101277.69
2022-09-23T23:17:45.635Z,101278.38
2022-09-23T23:20:14.924Z,101269.75
2022-09-23T23:22:44.253Z,101275.44
2022-09-23T23:25:13.503Z,101269.63
2022-09-23T23:27:42.752Z,101268.81
2022-09-23T23:30:12.433Z,101269.75
2022-09-23T23:32:42.349Z,101268.13
2022-09-23T23:35:11.806Z,101267.44
2022-09-23T23:37:41.060Z,101268.38
2022-09-23T23:40:10.930Z,101263.59
2022-09-23T23:42:40.196Z,101268.56
2022-09-23T23:45:10.198Z,101263.91
2022-09-23T23:47:41.404Z,101264.00
2022-09-23T23:50:13.948Z,101252.66
2022-09-23T23:52:43.283Z,101250.34
2022-09-23T23:55:12.524Z,101249.69
2022-09-23T23:57:42.183Z,101255.00
